sensor_id;sensor_type;location;lat;lon;timestamp;temperature;humidity
33149;DHT22;19506;51.040;3.856;2023-04-16T00:02:06;17.80;99.90
33149;DHT22;19506;51.040;3.856;2023-04-16T00:04:32;17.80;99.90
33149;DHT22;19506;51.040;3.856;2023-04-16T00:06:57;17.80;99.90
33149;DHT22;19506;51.040;3.856;2023-04-16T00:09:23;17.80;99.90
33149;DHT22;19506;51.040;3.856;2023-04-16T00:11:49;17.80;99.90
33149;DHT22;19506;51.040;3.856;2023-04-16T00:14:14;17.80;99.90
33149;DHT22;19506;51.040;3.856;2023-04-16T00:16:40;17.80;99.90
33149;DHT22;19506;51.040;3.856;2023-04-16T00:19:05;17.80;99.90
33149;DHT22;19506;51.040;3.856;2023-04-16T00:21:31;17.80;99.90
33149;DHT22;19506;51.040;3.856;2023-04-16T00:23:57;17.80;99.90
33149;DHT22;19506;51.040;3.856;2023-04-16T00:26:22;17.80;99.90
33149;DHT22;19506;51.040;3.856;2023-04-16T00:28:48;17.80;99.90
33149;DHT22;19506;51.040;3.856;2023-04-16T00:31:13;17.80;99.90
33149;DHT22;19506;51.040;3.856;2023-04-16T00:33:39;17.80;99.90
33149;DHT22;19506;51.040;3.856;2023-04-16T00:36:05;17.80;99.90
33149;DHT22;19506;51.040;3.856;2023-04-16T00:38:31;17.80;99.90
33149;DHT22;19506;51.040;3.856;2023-04-16T00:40:57;17.70;99.90
33149;DHT22;19506;51.040;3.856;2023-04-16T00:43:24;17.70;99.90
33149;DHT22;19506;51.040;3.856;2023-04-16T00:45:51;17.70;99.90
33149;DHT22;19506;51.040;3.856;2023-04-16T00:48:19;17.70;99.90
33149;DHT22;19506;51.040;3.856;2023-04-16T00:50:45;17.70;99.90
33149;DHT22;19506;51.040;3.856;2023-04-16T00:53:10;17.60;99.90
33149;DHT22;19506;51.040;3.856;2023-04-16T00:55:36;17.60;99.90
33149;DHT22;19506;51.040;3.856;2023-04-16T00:58:03;17.60;99.90
33149;DHT22;19506;51.040;3.856;2023-04-16T01:00:28;17.60;99.90
33149;DHT22;19506;51.040;3.856;2023-04-16T01:02:54;17.60;99.90
33149;DHT22;19506;51.040;3.856;2023-04-16T01:05:20;17.60;99.90
33149;DHT22;19506;51.040;3.856;2023-04-16T01:07:46;17.60;99.90
33149;DHT22;19506;51.040;3.856;2023-04-16T01:10:11;17.50;99.90
33149;DHT22;19506;51.040;3.856;2023-04-16T01:12:37;17.60;99.90
33149;DHT22;19506;51.040;3.856;2023-04-16T01:15:03;17.60;99.90
33149;DHT22;19506;51.040;3.856;2023-04-16T01:17:29;17.50;99.90
33149;DHT22;19506;51.040;3.856;2023-04-16T01:20:00;17.50;99.90
33149;DHT22;19506;51.040;3.856;2023-04-16T01:22:27;17.50;99.90
33149;DHT22;19506;51.040;3.856;2023-04-16T01:24:53;17.50;99.90
33149;DHT22;19506;51.040;3.856;2023-04-16T01:27:19;17.50;99.90
33149;DHT22;19506;51.040;3.856;2023-04-16T01:29:44;17.50;99.90
33149;DHT22;19506;51.040;3.856;2023-04-16T01:32:10;17.50;99.90
33149;DHT22;19506;51.040;3.856;2023-04-16T01:34:35;17.50;99.90
33149;DHT22;19506;51.040;3.856;2023-04-16T01:37:02;17.50;99.90
33149;DHT22;19506;51.040;3.856;2023-04-16T01:39:27;17.50;99.90
33149;DHT22;19506;51.040;3.856;2023-04-16T01:41:53;17.50;99.90
33149;DHT22;19506;51.040;3.856;2023-04-16T01:44:19;17.50;99.90
33149;DHT22;19506;51.040;3.856;2023-04-16T01:46:46;17.50;99.90
33149;DHT22;19506;51.040;3.856;2023-04-16T01:49:11;17.50;99.90
33149;DHT22;19506;51.040;3.856;2023-04-16T01:51:37;17.50;99.90
33149;DHT22;19506;51.040;3.856;2023-04-16T01:54:02;17.50;99.90
33149;DHT22;19506;51.040;3.856;2023-04-16T01:56:28;17.40;99.90
33149;DHT22;19506;51.040;3.856;2023-04-16T01:58:54;17.40;99.90
33149;DHT22;19506;51.040;3.856;2023-04-16T02:01:19;17.40;99.90
33149;DHT22;19506;51.040;3.856;2023-04-16T02:03:45;17.40;99.90
33149;DHT22;19506;51.040;3.856;2023-04-16T02:06:11;17.40;99.90
33149;DHT22;19506;51.040;3.856;2023-04-16T02:08:37;17.40;99.90
33149;DHT22;19506;51.040;3.856;2023-04-16T02:11:02;17.40;99.90
33149;DHT22;19506;51.040;3.856;2023-04-16T02:13:28;17.40;99.90
33149;DHT22;19506;51.040;3.856;2023-04-16T02:15:53;17.50;99.90
33149;DHT22;19506;51.040;3.856;2023-04-16T02:18:19;17.40;99.90
33149;DHT22;19506;51.040;3.856;2023-04-16T02:20:46;17.40;99.90
33149;DHT22;19506;51.040;3.856;2023-04-16T02:23:12;17.40;99.90
33149;DHT22;19506;51.040;3.856;2023-04-16T02:25:44;17.40;99.90
33149;DHT22;19506;51.040;3.856;2023-04-16T02:28:12;17.40;99.90
33149;DHT22;19506;51.040;3.856;2023-04-16T02:30:39;17.40;99.90
33149;DHT22;19506;51.040;3.856;2023-04-16T02:33:06;17.40;99.90
33149;DHT22;19506;51.040;3.856;2023-04-16T02:35:36;17.40;99.90
33149;DHT22;19506;51.040;3.856;2023-04-16T02:38:03;17.40;99.90
33149;DHT22;19506;51.040;3.856;2023-04-16T02:40:30;17.40;99.90
33149;DHT22;19506;51.040;3.856;2023-04-16T02:42:56;17.40;99.90
33149;DHT22;19506;51.040;3.856;2023-04-16T02:45:22;17.30;99.90
33149;DHT22;19506;51.040;3.856;2023-04-16T02:47:48;17.30;99.90
33149;DHT22;19506;51.040;3.856;2023-04-16T02:50:15;17.30;99.90
33149;DHT22;19506;51.040;3.856;2023-04-16T02:52:41;17.30;99.90
33149;DHT22;19506;51.040;3.856;2023-04-16T02:55:07;17.30;99.90
33149;DHT22;19506;51.040;3.856;2023-04-16T02:57:33;17.30;99.90
33149;DHT22;19506;51.040;3.856;2023-04-16T02:59:59;17.30;99.90
33149;DHT22;19506;51.040;3.856;2023-04-16T03:02:25;17.30;99.90
33149;DHT22;19506;51.040;3.856;2023-04-16T03:04:54;17.40;99.90
33149;DHT22;19506;51.040;3.856;2023-04-16T03:07:20;17.40;99.90
33149;DHT22;19506;51.040;3.856;2023-04-16T03:09:45;17.40;99.90
33149;DHT22;19506;51.040;3.856;2023-04-16T03:12:11;17.40;99.90
33149;DHT22;19506;51.040;3.856;2023-04-16T03:14:37;17.40;99.90
33149;DHT22;19506;51.040;3.856;2023-04-16T03:17:02;17.30;99.90
33149;DHT22;19506;51.040;3.856;2023-04-16T03:19:28;17.30;99.90
33149;DHT22;19506;51.040;3.856;2023-04-16T03:21:54;17.30;99.90
33149;DHT22;19506;51.040;3.856;2023-04-16T03:24:20;17.30;99.90
33149;DHT22;19506;51.040;3.856;2023-04-16T03:26:45;17.30;99.90
33149;DHT22;19506;51.040;3.856;2023-04-16T03:29:11;17.30;99.90
33149;DHT22;19506;51.040;3.856;2023-04-16T03:31:37;17.30;99.90
33149;DHT22;19506;51.040;3.856;2023-04-16T03:34:02;17.30;99.90
33149;DHT22;19506;51.040;3.856;2023-04-16T03:36:28;17.30;99.90
33149;DHT22;19506;51.040;3.856;2023-04-16T03:38:54;17.30;99.90
33149;DHT22;19506;51.040;3.856;2023-04-16T03:41:19;17.20;99.90
33149;DHT22;19506;51.040;3.856;2023-04-16T03:43:45;17.30;99.90
33149;DHT22;19506;51.040;3.856;2023-04-16T03:46:11;17.30;99.90
33149;DHT22;19506;51.040;3.856;2023-04-16T03:48:36;17.20;99.90
33149;DHT22;19506;51.040;3.856;2023-04-16T03:51:02;17.30;99.90
33149;DHT22;19506;51.040;3.856;2023-04-16T03:53:28;17.20;99.90
33149;DHT22;19506;51.040;3.856;2023-04-16T03:55:53;17.30;99.90
33149;DHT22;19506;51.040;3.856;2023-04-16T03:58:19;17.30;99.90
33149;DHT22;19506;51.040;3.856;2023-04-16T04:00:45;17.30;99.90
33149;DHT22;19506;51.040;3.856;2023-04-16T04:03:11;17.30;99.90
33149;DHT22;19506;51.040;3.856;2023-04-16T04:05:39;17.30;99.90
33149;DHT22;19506;51.040;3.856;2023-04-16T04:08:05;17.30;99.90
33149;DHT22;19506;51.040;3.856;2023-04-16T04:10:35;17.30;99.90
33149;DHT22;19506;51.040;3.856;2023-04-16T04:13:02;17.20;99.90
33149;DHT22;19506;51.040;3.856;2023-04-16T04:15:28;17.20;99.90
33149;DHT22;19506;51.040;3.856;2023-04-16T04:17:54;17.20;99.90
33149;DHT22;19506;51.040;3.856;2023-04-16T04:20:20;17.20;99.90
33149;DHT22;19506;51.040;3.856;2023-04-16T04:22:46;17.30;99.90
33149;DHT22;19506;51.040;3.856;2023-04-16T04:25:12;17.30;99.90
33149;DHT22;19506;51.040;3.856;2023-04-16T04:27:37;17.30;99.90
33149;DHT22;19506;51.040;3.856;2023-04-16T04:30:04;17.20;99.90
33149;DHT22;19506;51.040;3.856;2023-04-16T04:32:30;17.20;99.90
33149;DHT22;19506;51.040;3.856;2023-04-16T04:34:55;17.20;99.90
33149;DHT22;19506;51.040;3.856;2023-04-16T04:37:21;17.20;99.90
33149;DHT22;19506;51.040;3.856;2023-04-16T04:39:47;17.20;99.90
33149;DHT22;19506;51.040;3.856;2023-04-16T04:42:12;17.20;99.90
33149;DHT22;19506;51.040;3.856;2023-04-16T04:44:38;17.20;99.90
33149;DHT22;19506;51.040;3.856;2023-04-16T04:47:03;17.20;99.90
33149;DHT22;19506;51.040;3.856;2023-04-16T04:49:29;17.20;99.90
33149;DHT22;19506;51.040;3.856;2023-04-16T04:51:55;17.20;99.90
33149;DHT22;19506;51.040;3.856;2023-04-16T04:54:21;17.20;99.90
33149;DHT22;19506;51.040;3.856;2023-04-16T04:56:46;17.20;99.90
33149;DHT22;19506;51.040;3.856;2023-04-16T04:59:12;17.20;99.90
33149;DHT22;19506;51.040;3.856;2023-04-16T05:01:38;17.20;99.90
33149;DHT22;19506;51.040;3.856;2023-04-16T05:04:03;17.20;99.90
33149;DHT22;19506;51.040;3.856;2023-04-16T05:06:29;17.20;99.90
33149;DHT22;19506;51.040;3.856;2023-04-16T05:08:55;17.10;99.90
33149;DHT22;19506;51.040;3.856;2023-04-16T05:11:21;17.10;99.90
33149;DHT22;19506;51.040;3.856;2023-04-16T05:13:47;17.20;99.90
33149;DHT22;19506;51.040;3.856;2023-04-16T05:16:12;17.20;99.90
33149;DHT22;19506;51.040;3.856;2023-04-16T05:18:38;17.20;99.90
33149;DHT22;19506;51.040;3.856;2023-04-16T05:21:04;17.20;99.90
33149;DHT22;19506;51.040;3.856;2023-04-16T05:23:30;17.30;99.90
33149;DHT22;19506;51.040;3.856;2023-04-16T05:25:55;17.30;99.90
33149;DHT22;19506;51.040;3.856;2023-04-16T05:28:21;17.30;99.90
33149;DHT22;19506;51.040;3.856;2023-04-16T05:30:46;17.40;99.90
33149;DHT22;19506;51.040;3.856;2023-04-16T05:33:13;17.40;99.90
33149;DHT22;19506;51.040;3.856;2023-04-16T05:35:38;17.40;99.90
33149;DHT22;19506;51.040;3.856;2023-04-16T05:38:04;17.40;99.90
33149;DHT22;19506;51.040;3.856;2023-04-16T05:40:30;17.50;99.90
33149;DHT22;19506;51.040;3.856;2023-04-16T05:42:56;17.50;99.90
33149;DHT22;19506;51.040;3.856;2023-04-16T05:45:22;17.50;99.90
33149;DHT22;19506;51.040;3.856;2023-04-16T05:47:47;17.60;99.90
33149;DHT22;19506;51.040;3.856;2023-04-16T05:50:13;17.60;99.90
33149;DHT22;19506;51.040;3.856;2023-04-16T05:52:39;17.70;99.90
33149;DHT22;19506;51.040;3.856;2023-04-16T05:55:05;17.70;99.90
33149;DHT22;19506;51.040;3.856;2023-04-16T05:57:32;17.70;99.90
33149;DHT22;19506;51.040;3.856;2023-04-16T05:59:57;17.80;99.90
33149;DHT22;19506;51.040;3.856;2023-04-16T06:02:23;17.80;99.90
33149;DHT22;19506;51.040;3.856;2023-04-16T06:04:49;17.90;99.90
33149;DHT22;19506;51.040;3.856;2023-04-16T06:07:14;18.00;99.90
33149;DHT22;19506;51.040;3.856;2023-04-16T06:09:40;17.90;99.90
33149;DHT22;19506;51.040;3.856;2023-04-16T06:12:05;18.00;99.90
33149;DHT22;19506;51.040;3.856;2023-04-16T06:14:31;18.00;99.90
33149;DHT22;19506;51.040;3.856;2023-04-16T06:16:57;18.00;99.90
33149;DHT22;19506;51.040;3.856;2023-04-16T06:19:23;18.00;99.90
33149;DHT22;19506;51.040;3.856;2023-04-16T06:21:49;17.90;99.90
33149;DHT22;19506;51.040;3.856;2023-04-16T06:24:14;17.90;99.90
33149;DHT22;19506;51.040;3.856;2023-04-16T06:26:40;17.90;99.90
33149;DHT22;19506;51.040;3.856;2023-04-16T06:29:06;17.90;99.90
33149;DHT22;19506;51.040;3.856;2023-04-16T06:31:31;18.00;99.90
33149;DHT22;19506;51.040;3.856;2023-04-16T06:33:57;18.00;99.90
33149;DHT22;19506;51.040;3.856;2023-04-16T06:36:23;18.00;99.90
33149;DHT22;19506;51.040;3.856;2023-04-16T06:38:48;18.00;99.90
33149;DHT22;19506;51.040;3.856;2023-04-16T06:41:14;17.90;99.90
33149;DHT22;19506;51.040;3.856;2023-04-16T06:43:40;17.90;99.90
33149;DHT22;19506;51.040;3.856;2023-04-16T06:46:05;17.90;99.90
33149;DHT22;19506;51.040;3.856;2023-04-16T06:48:31;18.00;99.90
33149;DHT22;19506;51.040;3.856;2023-04-16T06:50:57;18.00;99.90
33149;DHT22;19506;51.040;3.856;2023-04-16T06:53:22;18.10;99.90
33149;DHT22;19506;51.040;3.856;2023-04-16T06:55:48;18.10;99.90
33149;DHT22;19506;51.040;3.856;2023-04-16T06:58:14;18.00;99.90
33149;DHT22;19506;51.040;3.856;2023-04-16T07:00:40;18.00;99.90
33149;DHT22;19506;51.040;3.856;2023-04-16T07:03:05;18.00;99.90
33149;DHT22;19506;51.040;3.856;2023-04-16T07:05:31;18.00;99.90
33149;DHT22;19506;51.040;3.856;2023-04-16T07:07:57;18.00;99.90
33149;DHT22;19506;51.040;3.856;2023-04-16T07:10:23;18.00;99.90
33149;DHT22;19506;51.040;3.856;2023-04-16T07:12:49;18.00;99.90
33149;DHT22;19506;51.040;3.856;2023-04-16T07:15:15;18.00;99.90
33149;DHT22;19506;51.040;3.856;2023-04-16T07:17:41;18.00;99.90
33149;DHT22;19506;51.040;3.856;2023-04-16T07:20:07;18.00;99.90
33149;DHT22;19506;51.040;3.856;2023-04-16T07:22:33;18.10;99.90
33149;DHT22;19506;51.040;3.856;2023-04-16T07:24:58;18.10;99.90
33149;DHT22;19506;51.040;3.856;2023-04-16T07:27:24;18.00;99.90
33149;DHT22;19506;51.040;3.856;2023-04-16T07:29:49;18.10;99.90
33149;DHT22;19506;51.040;3.856;2023-04-16T07:32:15;18.10;99.90
33149;DHT22;19506;51.040;3.856;2023-04-16T07:34:41;18.00;99.90
33149;DHT22;19506;51.040;3.856;2023-04-16T07:37:07;18.00;99.90
33149;DHT22;19506;51.040;3.856;2023-04-16T07:39:33;18.00;99.90
33149;DHT22;19506;51.040;3.856;2023-04-16T07:41:58;18.10;99.90
33149;DHT22;19506;51.040;3.856;2023-04-16T07:44:24;18.10;99.90
33149;DHT22;19506;51.040;3.856;2023-04-16T07:46:50;18.20;99.90
33149;DHT22;19506;51.040;3.856;2023-04-16T07:49:15;18.30;99.90
33149;DHT22;19506;51.040;3.856;2023-04-16T07:51:41;18.30;99.90
33149;DHT22;19506;51.040;3.856;2023-04-16T07:54:07;18.30;99.90
33149;DHT22;19506;51.040;3.856;2023-04-16T07:56:32;18.30;99.90
33149;DHT22;19506;51.040;3.856;2023-04-16T07:58:58;18.40;99.90
33149;DHT22;19506;51.040;3.856;2023-04-16T08:01:24;18.40;99.90
33149;DHT22;19506;51.040;3.856;2023-04-16T08:03:49;18.40;99.90
33149;DHT22;19506;51.040;3.856;2023-04-16T08:06:15;18.40;99.90
33149;DHT22;19506;51.040;3.856;2023-04-16T08:08:41;18.40;99.90
33149;DHT22;19506;51.040;3.856;2023-04-16T08:11:06;18.40;99.90
33149;DHT22;19506;51.040;3.856;2023-04-16T08:13:32;18.30;99.90
33149;DHT22;19506;51.040;3.856;2023-04-16T08:15:58;18.30;99.90
33149;DHT22;19506;51.040;3.856;2023-04-16T08:18:23;18.40;99.90
33149;DHT22;19506;51.040;3.856;2023-04-16T08:20:49;18.50;99.90
33149;DHT22;19506;51.040;3.856;2023-04-16T08:23:15;18.50;99.90
33149;DHT22;19506;51.040;3.856;2023-04-16T08:25:41;18.40;99.90
33149;DHT22;19506;51.040;3.856;2023-04-16T08:28:06;18.40;99.90
